Time,TemperatureF,DewpointF,PressureIn,WindDirection,WindDirectionDegrees,WindSpeedMPH,WindSpeedGustMPH,Humidity,HourlyPrecipIn,Conditions,Clouds,dailyrainin,SoftwareType,DateUTC
2013-07-31 00:01:00,78.4,76.5,30.14,ENE,73,0.0,0.0,94,0.00,,---,0.00,VWS V14.01,2013-07-31 04:01:00,
2013-07-31 00:02:00,78.4,76.5,30.13,ENE,73,0.0,0.0,94,0.00,,---,0.00,VWS V14.01,2013-07-31 04:02:00,
2013-07-31 00:03:00,78.3,76.4,30.14,ENE,73,0.0,0.0,94,0.00,,---,0.00,VWS V14.01,2013-07-31 04:03:00,
2013-07-31 00:08:00,78.6,76.7,30.13,WNW,301,0.0,1.0,94,0.00,,---,0.00,VWS V14.01,2013-07-31 04:08:00,
2013-07-31 00:14:00,78.6,76.7,30.14,WNW,301,0.0,1.0,94,0.00,,---,0.00,VWS V14.01,2013-07-31 04:14:00,
2013-07-31 00:19:00,78.6,76.7,30.14,WNW,300,0.0,1.0,94,0.00,,---,0.00,VWS V14.01,2013-07-31 04:19:00,
2013-07-31 00:24:00,78.5,76.6,30.13,WNW,301,0.0,1.0,94,0.00,,---,0.00,VWS V14.01,2013-07-31 04:24:00,
2013-07-31 00:29:00,78.5,76.6,30.13,WNW,302,0.0,1.0,94,0.00,,---,0.00,VWS V14.01,2013-07-31 04:29:00,
2013-07-31 00:34:00,78.4,76.5,30.13,WNW,302,0.0,0.0,94,0.00,,---,0.00,VWS V14.01,2013-07-31 04:34:00,
2013-07-31 00:39:00,78.3,76.4,30.13,WNW,302,0.0,0.0,94,0.00,,---,0.00,VWS V14.01,2013-07-31 04:39:00,
2013-07-31 00:44:00,78.1,76.2,30.13,WNW,302,0.0,0.0,94,0.00,,---,0.00,VWS V14.01,2013-07-31 04:44:00,
2013-07-31 00:49:00,78.1,76.6,30.14,WNW,302,0.0,0.0,95,0.00,,---,0.00,VWS V14.01,2013-07-31 04:49:00,
2013-07-31 00:54:00,78.1,76.6,30.13,WNW,302,0.0,0.0,95,0.00,,---,0.00,VWS V14.01,2013-07-31 04:54:00,
2013-07-31 00:59:00,78.1,76.6,30.13,WNW,302,0.0,0.0,95,0.00,,---,0.00,VWS V14.01,2013-07-31 04:59:00,
2013-07-31 01:04:00,78.0,76.5,30.13,WNW,300,0.0,0.0,95,0.00,,---,0.00,VWS V14.01,2013-07-31 05:04:00,
2013-07-31 01:09:00,78.1,76.6,30.13,WNW,300,0.0,0.0,95,0.00,,---,0.00,VWS V14.01,2013-07-31 05:09:00,
2013-07-31 01:14:00,78.1,76.6,30.13,WNW,300,0.0,0.0,95,0.00,,---,0.00,VWS V14.01,2013-07-31 05:14:00,
2013-07-31 01:19:00,78.0,76.5,30.13,WNW,300,0.0,0.0,95,0.00,,---,0.00,VWS V14.01,2013-07-31 05:19:00,
2013-07-31 01:24:00,77.9,76.4,30.13,WNW,301,0.0,0.0,95,0.00,,---,0.00,VWS V14.01,2013-07-31 05:24:00,
2013-07-31 01:29:00,77.9,76.4,30.12,WNW,300,0.0,0.0,95,0.00,,---,0.00,VWS V14.01,2013-07-31 05:29:00,
2013-07-31 01:34:00,77.7,76.2,30.12,WNW,300,0.0,0.0,95,0.00,,---,0.00,VWS V14.01,2013-07-31 05:34:00,
2013-07-31 01:39:00,77.6,76.1,30.12,WNW,300,0.0,0.0,95,0.00,,---,0.00,VWS V14.01,2013-07-31 05:39:00,
2013-07-31 01:44:00,77.5,76.0,30.11,WNW,300,0.0,0.0,95,0.00,,---,0.00,VWS V14.01,2013-07-31 05:44:00,
2013-07-31 01:50:00,77.6,76.4,30.11,WNW,300,0.0,0.0,96,0.00,,---,0.00,VWS V14.01,2013-07-31 05:50:00,
2013-07-31 01:55:00,77.5,76.0,30.11,WNW,301,0.0,0.0,95,0.00,,---,0.00,VWS V14.01,2013-07-31 05:55:00,
2013-07-31 02:00:00,77.3,75.8,30.11,WNW,300,0.0,0.0,95,0.00,,---,0.00,VWS V14.01,2013-07-31 06:00:00,
2013-07-31 02:05:00,77.3,76.1,30.11,WNW,300,0.0,0.0,96,0.00,,---,0.00,VWS V14.01,2013-07-31 06:05:00,
2013-07-31 02:10:00,77.3,76.1,30.10,WNW,301,0.0,0.0,96,0.00,,---,0.00,VWS V14.01,2013-07-31 06:10:00,
2013-07-31 02:15:00,77.3,76.1,30.10,WNW,288,0.0,0.0,96,0.00,,---,0.00,VWS V14.01,2013-07-31 06:15:00,
2013-07-31 02:20:00,77.2,76.0,30.10,WNW,288,0.0,0.0,96,0.00,,---,0.00,VWS V14.01,2013-07-31 06:20:00,
2013-07-31 02:25:00,77.0,75.8,30.10,WNW,288,0.0,0.0,96,0.00,,---,0.00,VWS V14.01,2013-07-31 06:25:00,
2013-07-31 02:30:00,76.9,75.7,30.10,WNW,288,0.0,0.0,96,0.00,,---,0.00,VWS V14.01,2013-07-31 06:30:00,
2013-07-31 02:35:00,76.9,75.7,30.09,WNW,288,0.0,0.0,96,0.00,,---,0.00,VWS V14.01,2013-07-31 06:35:00,
2013-07-31 02:40:00,76.8,75.6,30.09,WNW,288,0.0,0.0,96,0.00,,---,0.00,VWS V14.01,2013-07-31 06:40:00,
2013-07-31 02:45:00,76.7,75.5,30.08,WNW,288,0.0,0.0,96,0.00,,---,0.00,VWS V14.01,2013-07-31 06:45:00,
2013-07-31 02:51:00,76.6,75.4,30.08,WNW,288,0.0,0.0,96,0.00,,---,0.00,VWS V14.01,2013-07-31 06:51:00,
2013-07-31 02:56:00,76.5,75.3,30.08,WNW,288,0.0,0.0,96,0.00,,---,0.00,VWS V14.01,2013-07-31 06:56:00,
2013-07-31 03:01:00,76.4,75.2,30.08,WNW,288,0.0,0.0,96,0.00,,---,0.00,VWS V14.01,2013-07-31 07:01:00,
2013-07-31 03:06:00,76.3,75.1,30.08,WNW,288,0.0,0.0,96,0.00,,---,0.00,VWS V14.01,2013-07-31 07:06:00,
2013-07-31 03:11:00,76.4,75.5,30.08,NW,307,0.0,0.0,97,0.00,,---,0.00,VWS V14.01,2013-07-31 07:11:00,
2013-07-31 03:16:00,76.6,75.7,30.08,NW,307,0.0,0.0,97,0.00,,---,0.00,VWS V14.01,2013-07-31 07:16:00,
2013-07-31 03:21:00,76.4,75.2,30.07,NW,307,0.0,0.0,96,0.00,,---,0.00,VWS V14.01,2013-07-31 07:21:00,
2013-07-31 03:26:00,76.3,75.1,30.07,NW,307,0.0,0.0,96,0.00,,---,0.00,VWS V14.01,2013-07-31 07:26:00,
2013-07-31 03:31:00,76.3,75.1,30.07,NW,307,0.0,0.0,96,0.00,,---,0.00,VWS V14.01,2013-07-31 07:31:00,
2013-07-31 03:36:00,76.2,75.0,30.07,NW,307,0.0,0.0,96,0.00,,---,0.00,VWS V14.01,2013-07-31 07:36:00,
2013-07-31 03:41:00,76.2,75.3,30.07,NW,307,0.0,0.0,97,0.00,,---,0.00,VWS V14.01,2013-07-31 07:41:00,
2013-07-31 03:46:00,76.1,75.2,30.07,NW,307,0.0,0.0,97,0.00,,---,0.00,VWS V14.01,2013-07-31 07:46:00,
2013-07-31 03:52:00,76.0,75.1,30.07,NW,307,0.0,0.0,97,0.00,,---,0.00,VWS V14.01,2013-07-31 07:52:00,
2013-07-31 03:57:00,76.0,75.1,30.07,NW,307,0.0,0.0,97,0.00,,---,0.00,VWS V14.01,2013-07-31 07:57:00,
2013-07-31 04:02:00,76.0,75.1,30.07,NW,307,0.0,0.0,97,0.00,,---,0.00,VWS V14.01,2013-07-31 08:02:00,
2013-07-31 04:07:00,75.9,75.0,30.07,NW,314,0.0,0.0,97,0.00,,---,0.00,VWS V14.01,2013-07-31 08:07:00,
2013-07-31 04:12:00,76.0,75.1,30.07,NW,312,0.0,1.0,97,0.00,,---,0.00,VWS V14.01,2013-07-31 08:12:00,
2013-07-31 04:17:00,76.0,75.1,30.07,NW,312,0.0,1.0,97,0.00,,---,0.00,VWS V14.01,2013-07-31 08:17:00,
2013-07-31 04:22:00,75.8,74.9,30.07,NW,312,0.0,1.0,97,0.00,,---,0.00,VWS V14.01,2013-07-31 08:22:00,
2013-07-31 04:27:00,75.8,74.9,30.07,NW,311,0.0,1.0,97,0.00,,---,0.00,VWS V14.01,2013-07-31 08:27:00,
2013-07-31 04:32:00,75.8,74.9,30.07,NW,311,0.0,0.0,97,0.00,,---,0.00,VWS V14.01,2013-07-31 08:32:00,
2013-07-31 04:37:00,75.6,74.7,30.07,NW,312,0.0,0.0,97,0.00,,---,0.00,VWS V14.01,2013-07-31 08:37:00,
2013-07-31 04:42:00,75.5,74.6,30.07,NW,312,0.0,0.0,97,0.00,,---,0.00,VWS V14.01,2013-07-31 08:42:00,
2013-07-31 04:47:00,75.4,74.5,30.07,NW,311,0.0,0.0,97,0.00,,---,0.00,VWS V14.01,2013-07-31 08:47:00,
2013-07-31 04:52:00,75.5,74.6,30.07,NW,311,0.0,0.0,97,0.00,,---,0.00,VWS V14.01,2013-07-31 08:52:00,
2013-07-31 04:57:00,75.5,74.6,30.07,NW,311,0.0,0.0,97,0.00,,---,0.00,VWS V14.01,2013-07-31 08:57:00,
2013-07-31 05:02:00,75.5,74.6,30.07,NW,312,0.0,0.0,97,0.00,,---,0.00,VWS V14.01,2013-07-31 09:02:00,
2013-07-31 05:07:00,75.6,74.7,30.07,NW,312,0.0,0.0,97,0.00,,---,0.00,VWS V14.01,2013-07-31 09:07:00,
2013-07-31 05:12:00,75.5,74.6,30.07,NW,311,0.0,0.0,97,0.00,,---,0.00,VWS V14.01,2013-07-31 09:12:00,
2013-07-31 05:17:00,75.5,74.6,30.07,NW,312,0.0,0.0,97,0.00,,---,0.00,VWS V14.01,2013-07-31 09:17:00,
2013-07-31 05:22:00,75.5,74.6,30.07,NW,312,0.0,0.0,97,0.00,,---,0.00,VWS V14.01,2013-07-31 09:22:00,
2013-07-31 05:28:00,75.4,74.5,30.07,NW,311,0.0,0.0,97,0.00,,---,0.00,VWS V14.01,2013-07-31 09:28:00,
2013-07-31 05:33:00,75.4,74.5,30.07,NW,312,0.0,0.0,97,0.00,,---,0.00,VWS V14.01,2013-07-31 09:33:00,
2013-07-31 05:38:00,75.5,74.9,30.08,NW,311,0.0,0.0,98,0.00,,---,0.00,VWS V14.01,2013-07-31 09:38:00,
2013-07-31 05:43:00,75.6,75.0,30.08,NW,311,0.0,0.0,98,0.00,,---,0.00,VWS V14.01,2013-07-31 09:43:00,
2013-07-31 05:48:00,75.6,74.7,30.08,NW,311,0.0,0.0,97,0.00,,---,0.00,VWS V14.01,2013-07-31 09:48:00,
2013-07-31 05:53:00,75.5,74.6,30.08,NW,311,0.0,0.0,97,0.00,,---,0.00,VWS V14.01,2013-07-31 09:53:00,
2013-07-31 05:58:00,75.6,74.7,30.08,NW,312,0.0,0.0,97,0.00,,---,0.00,VWS V14.01,2013-07-31 09:58:00,
2013-07-31 06:03:00,75.6,74.7,30.08,NW,311,0.0,0.0,97,0.00,,---,0.00,VWS V14.01,2013-07-31 10:03:00,
2013-07-31 06:08:00,75.6,74.7,30.08,NW,311,0.0,0.0,97,0.00,,---,0.00,VWS V14.01,2013-07-31 10:08:00,
2013-07-31 06:13:00,75.5,74.6,30.08,NW,311,0.0,0.0,97,0.00,,---,0.00,VWS V14.01,2013-07-31 10:13:00,
2013-07-31 06:18:00,75.4,74.5,30.08,NW,311,0.0,0.0,97,0.00,,---,0.00,VWS V14.01,2013-07-31 10:18:00,
2013-07-31 06:23:00,75.5,74.9,30.08,NW,311,0.0,0.0,98,0.00,,---,0.00,VWS V14.01,2013-07-31 10:23:00,
2013-07-31 06:28:00,75.5,74.9,30.09,NW,311,0.0,0.0,98,0.00,,---,0.00,VWS V14.01,2013-07-31 10:28:00,
2013-07-31 06:33:00,75.5,74.9,30.09,NW,311,0.0,0.0,98,0.00,,---,0.00,VWS V14.01,2013-07-31 10:33:00,
2013-07-31 06:39:00,75.7,75.1,30.09,NW,312,0.0,0.0,98,0.00,,---,0.00,VWS V14.01,2013-07-31 10:39:00,
2013-07-31 06:44:00,75.8,75.2,30.09,NW,311,0.0,0.0,98,0.00,,---,0.00,VWS V14.01,2013-07-31 10:44:00,
2013-07-31 06:49:00,75.8,74.9,30.09,NW,311,0.0,0.0,97,0.00,,---,0.00,VWS V14.01,2013-07-31 10:49:00,
2013-07-31 06:54:00,75.9,75.3,30.10,NW,311,0.0,0.0,98,0.00,,---,0.00,VWS V14.01,2013-07-31 10:54:00,
2013-07-31 06:59:00,76.0,75.4,30.10,NW,311,0.0,0.0,98,0.00,,---,0.00,VWS V14.01,2013-07-31 10:59:00,
2013-07-31 07:04:00,76.1,75.5,30.10,NW,311,0.0,0.0,98,0.00,,---,0.00,VWS V14.01,2013-07-31 11:04:00,
2013-07-31 07:09:00,76.2,75.6,30.10,NW,312,0.0,0.0,98,0.00,,---,0.00,VWS V14.01,2013-07-31 11:09:00,
2013-07-31 07:14:00,76.3,75.7,30.10,NW,312,0.0,0.0,98,0.00,,---,0.00,VWS V14.01,2013-07-31 11:14:00,
2013-07-31 07:19:00,76.6,76.0,30.10,NW,312,0.0,0.0,98,0.00,,---,0.00,VWS V14.01,2013-07-31 11:19:00,
2013-07-31 07:24:00,77.1,76.5,30.10,NW,312,0.0,0.0,98,0.00,,---,0.00,VWS V14.01,2013-07-31 11:24:00,
2013-07-31 07:29:00,77.4,76.8,30.10,NW,311,0.0,0.0,98,0.00,,---,0.00,VWS V14.01,2013-07-31 11:29:00,
2013-07-31 07:34:00,77.9,77.3,30.10,NW,311,0.0,0.0,98,0.00,,---,0.00,VWS V14.01,2013-07-31 11:34:00,
2013-07-31 07:39:00,78.2,77.6,30.10,NW,307,0.0,0.0,98,0.00,,---,0.00,VWS V14.01,2013-07-31 11:39:00,
2013-07-31 07:44:00,78.8,78.2,30.10,NW,308,0.0,0.0,98,0.00,,---,0.00,VWS V14.01,2013-07-31 11:44:00,
2013-07-31 07:49:00,79.3,78.4,30.11,NW,308,0.0,0.0,97,0.00,,---,0.00,VWS V14.01,2013-07-31 11:49:00,
2013-07-31 07:54:00,79.7,78.8,30.10,NW,309,0.0,0.0,97,0.00,,---,0.00,VWS V14.01,2013-07-31 11:54:00,
2013-07-31 07:59:00,80.2,79.0,30.10,ENE,77,2.0,2.0,96,0.00,,---,0.00,VWS V14.01,2013-07-31 11:59:00,
2013-07-31 08:05:00,80.8,78.9,30.10,NE,53,0.0,3.0,94,0.00,,---,0.00,VWS V14.01,2013-07-31 12:05:00,
2013-07-31 08:10:00,81.5,79.6,30.11,NE,54,0.0,3.0,94,0.00,,---,0.00,VWS V14.01,2013-07-31 12:10:00,
2013-07-31 08:15:00,82.4,79.8,30.11,NE,54,0.0,3.0,92,0.00,,---,0.00,VWS V14.01,2013-07-31 12:15:00,
2013-07-31 08:20:00,83.2,79.6,30.11,NE,45,1.0,3.0,89,0.00,,---,0.00,VWS V14.01,2013-07-31 12:20:00,
2013-07-31 08:25:00,83.4,79.8,30.11,NE,49,1.0,3.0,89,0.00,,---,0.00,VWS V14.01,2013-07-31 12:25:00,
2013-07-31 08:30:00,83.8,79.5,30.11,SE,143,0.0,3.0,87,0.00,,---,0.00,VWS V14.01,2013-07-31 12:30:00,
2013-07-31 08:35:00,84.3,79.7,30.11,NE,53,1.0,2.0,86,0.00,,---,0.00,VWS V14.01,2013-07-31 12:35:00,
2013-07-31 08:40:00,84.7,79.7,30.11,SE,145,0.0,2.0,85,0.00,,---,0.00,VWS V14.01,2013-07-31 12:40:00,
2013-07-31 08:45:00,85.0,79.6,30.11,ESE,109,0.0,2.0,84,0.00,,---,0.00,VWS V14.01,2013-07-31 12:45:00,
2013-07-31 08:50:00,85.1,79.4,30.11,ESE,105,1.0,2.0,83,0.00,,---,0.00,VWS V14.01,2013-07-31 12:50:00,
2013-07-31 08:55:00,85.1,79.7,30.12,SE,138,0.0,2.0,84,0.00,,---,0.00,VWS V14.01,2013-07-31 12:55:00,
2013-07-31 09:00:00,85.2,79.1,30.12,NW,307,0.0,0.0,82,0.00,,---,0.00,VWS V14.01,2013-07-31 13:00:00,
2013-07-31 09:05:00,85.4,79.7,30.12,ESE,108,0.0,2.0,83,0.00,,---,0.00,VWS V14.01,2013-07-31 13:05:00,
2013-07-31 09:10:00,85.8,79.3,30.12,SE,141,0.0,4.0,81,0.00,,---,0.00,VWS V14.01,2013-07-31 13:10:00,
2013-07-31 09:15:00,85.5,78.6,30.12,SSE,160,0.0,4.0,80,0.00,,---,0.00,VWS V14.01,2013-07-31 13:15:00,
2013-07-31 09:20:00,85.3,78.8,30.12,ESE,110,0.0,4.0,81,0.00,,---,0.00,VWS V14.01,2013-07-31 13:20:00,
2013-07-31 09:26:00,85.5,79.0,30.12,East,93,0.0,4.0,81,0.00,,---,0.00,VWS V14.01,2013-07-31 13:26:00,
2013-07-31 09:31:00,85.4,79.3,30.12,ESE,123,0.0,1.0,82,0.00,,---,0.00,VWS V14.01,2013-07-31 13:31:00,
2013-07-31 09:36:00,85.3,78.8,30.12,ENE,75,0.0,1.0,81,0.00,,---,0.00,VWS V14.01,2013-07-31 13:36:00,
2013-07-31 09:41:00,85.2,78.3,30.12,ESE,116,1.0,5.0,80,0.00,,---,0.00,VWS V14.01,2013-07-31 13:41:00,
2013-07-31 09:46:00,85.1,78.2,30.13,SW,214,2.0,6.0,80,0.00,,---,0.00,VWS V14.01,2013-07-31 13:46:00,
2013-07-31 09:51:00,85.8,78.9,30.13,ENE,72,4.0,6.0,80,0.00,,---,0.00,VWS V14.01,2013-07-31 13:51:00,
2013-07-31 09:56:00,86.0,79.1,30.12,NE,46,3.0,8.0,80,0.00,,---,0.00,VWS V14.01,2013-07-31 13:56:00,
2013-07-31 10:01:00,86.1,78.4,30.13,West,271,0.0,3.0,78,0.00,,---,0.00,VWS V14.01,2013-07-31 14:01:00,
2013-07-31 10:06:00,86.2,78.9,30.13,NNE,26,1.0,6.0,79,0.00,,---,0.00,VWS V14.01,2013-07-31 14:06:00,
2013-07-31 10:12:00,86.3,79.8,30.13,ESE,122,0.0,6.0,81,0.01,,---,0.01,VWS V14.01,2013-07-31 14:12:00,
2013-07-31 10:17:00,86.1,79.6,30.13,NE,41,0.0,6.0,81,0.01,,---,0.01,VWS V14.01,2013-07-31 14:17:00,
2013-07-31 10:22:00,85.9,79.4,30.13,ESE,116,1.0,6.0,81,0.01,,---,0.01,VWS V14.01,2013-07-31 14:22:00,
2013-07-31 10:27:00,85.7,78.1,30.13,ESE,105,1.0,6.0,78,0.01,,---,0.01,VWS V14.01,2013-07-31 14:27:00,
2013-07-31 10:32:00,85.6,78.0,30.13,ESE,103,1.0,2.0,78,0.01,,---,0.01,VWS V14.01,2013-07-31 14:32:00,
2013-07-31 10:37:00,86.1,78.8,30.13,SSW,210,0.0,2.0,79,0.01,,---,0.01,VWS V14.01,2013-07-31 14:37:00,
2013-07-31 10:42:00,86.5,78.4,30.12,SSE,149,0.0,3.0,77,0.01,,---,0.01,VWS V14.01,2013-07-31 14:42:00,
2013-07-31 10:47:00,86.3,78.6,30.12,ESE,115,1.0,3.0,78,0.01,,---,0.01,VWS V14.01,2013-07-31 14:47:00,
2013-07-31 10:52:00,86.2,78.9,30.12,SSE,162,0.0,3.0,79,0.01,,---,0.01,VWS V14.01,2013-07-31 14:52:00,
2013-07-31 10:57:00,86.4,79.1,30.12,SE,128,1.0,2.0,79,0.01,,---,0.01,VWS V14.01,2013-07-31 14:57:00,
2013-07-31 11:02:00,86.4,79.1,30.12,SSW,212,1.0,2.0,79,0.01,,---,0.01,VWS V14.01,2013-07-31 15:02:00,
2013-07-31 11:07:00,86.8,78.7,30.12,NW,308,1.0,4.0,77,0.01,,---,0.01,VWS V14.01,2013-07-31 15:07:00,
2013-07-31 11:13:00,86.8,78.7,30.12,SE,132,0.0,4.0,77,0.01,,---,0.01,VWS V14.01,2013-07-31 15:13:00,
2013-07-31 11:18:00,86.9,78.4,30.12,SSE,163,0.0,4.0,76,0.01,,---,0.01,VWS V14.01,2013-07-31 15:18:00,
2013-07-31 11:23:00,87.7,78.0,30.12,SE,141,2.0,4.0,73,0.01,,---,0.01,VWS V14.01,2013-07-31 15:23:00,
2013-07-31 11:28:00,88.4,78.2,30.12,ESE,113,2.0,5.0,72,0.01,,---,0.01,VWS V14.01,2013-07-31 15:28:00,
2013-07-31 11:33:00,88.3,78.1,30.12,East,99,1.0,2.0,72,0.00,,---,0.01,VWS V14.01,2013-07-31 15:33:00,
2013-07-31 11:38:00,87.9,77.3,30.12,ENE,68,3.0,4.0,71,0.00,,---,0.01,VWS V14.01,2013-07-31 15:38:00,
2013-07-31 11:43:00,87.7,77.1,30.12,SSW,198,0.0,4.0,71,0.00,,---,0.01,VWS V14.01,2013-07-31 15:43:00,
2013-07-31 11:48:00,88.4,78.2,30.12,NE,49,3.0,8.0,72,0.00,,---,0.01,VWS V14.01,2013-07-31 15:48:00,
2013-07-31 11:53:00,88.2,77.2,30.12,SE,131,0.0,8.0,70,0.00,,---,0.01,VWS V14.01,2013-07-31 15:53:00,
2013-07-31 11:58:00,88.2,77.2,30.12,ESE,105,1.0,8.0,70,0.00,,---,0.01,VWS V14.01,2013-07-31 15:58:00,
2013-07-31 12:03:00,88.4,78.2,30.11,East,85,1.0,6.0,72,0.00,,---,0.01,VWS V14.01,2013-07-31 16:03:00,
2013-07-31 12:08:00,88.5,77.9,30.11,West,267,0.0,7.0,71,0.00,,---,0.01,VWS V14.01,2013-07-31 16:08:00,
2013-07-31 12:13:00,88.8,77.8,30.11,ESE,121,1.0,7.0,70,0.00,,---,0.01,VWS V14.01,2013-07-31 16:13:00,
2013-07-31 12:19:00,88.8,77.3,30.12,East,82,5.0,7.0,69,0.00,,---,0.01,VWS V14.01,2013-07-31 16:19:00,
2013-07-31 12:24:00,88.0,77.4,30.11,East,91,2.0,9.0,71,0.00,,---,0.01,VWS V14.01,2013-07-31 16:24:00,
2013-07-31 12:29:00,88.1,77.1,30.11,SW,218,2.0,9.0,70,0.00,,---,0.01,VWS V14.01,2013-07-31 16:29:00,
2013-07-31 12:34:00,88.5,77.5,30.11,SE,138,1.0,3.0,70,0.00,,---,0.01,VWS V14.01,2013-07-31 16:34:00,
2013-07-31 12:39:00,89.3,77.8,30.11,ESE,114,1.0,4.0,69,0.00,,---,0.01,VWS V14.01,2013-07-31 16:39:00,
2013-07-31 12:44:00,89.6,76.7,30.11,East,91,2.0,5.0,66,0.00,,---,0.01,VWS V14.01,2013-07-31 16:44:00,
2013-07-31 12:49:00,89.3,76.9,30.11,ESE,122,3.0,7.0,67,0.00,,---,0.01,VWS V14.01,2013-07-31 16:49:00,
2013-07-31 12:54:00,89.4,77.0,30.11,East,101,2.0,7.0,67,0.00,,---,0.01,VWS V14.01,2013-07-31 16:54:00,
2013-07-31 12:59:00,89.5,77.1,30.11,SE,124,3.0,7.0,67,0.00,,---,0.01,VWS V14.01,2013-07-31 16:59:00,
2013-07-31 13:04:00,89.3,76.9,30.10,ESE,120,1.0,5.0,67,0.00,,---,0.01,VWS V14.01,2013-07-31 17:04:00,
2013-07-31 13:09:00,89.4,77.9,30.10,ENE,78,2.0,5.0,69,0.00,,---,0.01,VWS V14.01,2013-07-31 17:09:00,
2013-07-31 13:14:00,89.4,78.3,30.10,NE,50,1.0,5.0,70,0.00,,---,0.01,VWS V14.01,2013-07-31 17:14:00,
2013-07-31 13:19:00,89.5,77.1,30.10,ESE,122,4.0,8.0,67,0.00,,---,0.01,VWS V14.01,2013-07-31 17:19:00,
2013-07-31 13:24:00,89.8,76.5,30.10,NE,46,1.0,8.0,65,0.00,,---,0.01,VWS V14.01,2013-07-31 17:24:00,
2013-07-31 13:29:00,89.9,76.6,30.10,WNW,297,0.0,8.0,65,0.00,,---,0.01,VWS V14.01,2013-07-31 17:29:00,
2013-07-31 13:34:00,90.0,76.7,30.09,West,262,1.0,4.0,65,0.00,,---,0.01,VWS V14.01,2013-07-31 17:34:00,
2013-07-31 13:39:00,90.3,76.5,30.09,SE,127,2.0,6.0,64,0.00,,---,0.01,VWS V14.01,2013-07-31 17:39:00,
2013-07-31 13:44:00,90.2,77.3,30.09,East,100,1.0,6.0,66,0.00,,---,0.01,VWS V14.01,2013-07-31 17:44:00,
2013-07-31 13:49:00,89.8,77.8,30.09,SSE,161,2.0,8.0,68,0.00,,---,0.01,VWS V14.01,2013-07-31 17:49:00,
2013-07-31 13:55:00,88.8,78.2,30.08,ENE,78,2.0,11.0,71,0.00,,---,0.01,VWS V14.01,2013-07-31 17:55:00,
2013-07-31 14:00:00,89.2,78.6,30.08,SE,134,3.0,11.0,71,0.00,,---,0.01,VWS V14.01,2013-07-31 18:00:00,
2013-07-31 14:05:00,89.8,78.7,30.08,SSE,167,1.0,4.0,70,0.00,,---,0.01,VWS V14.01,2013-07-31 18:05:00,
2013-07-31 14:10:00,90.4,77.0,30.08,SE,143,3.0,8.0,65,0.00,,---,0.01,VWS V14.01,2013-07-31 18:10:00,
2013-07-31 14:15:00,90.5,77.1,30.07,East,80,3.0,8.0,65,0.00,,---,0.01,VWS V14.01,2013-07-31 18:15:00,
2013-07-31 14:20:00,90.1,77.7,30.07,NE,46,3.0,8.0,67,0.00,,---,0.01,VWS V14.01,2013-07-31 18:20:00,
2013-07-31 14:25:00,89.4,77.9,30.07,SE,139,2.0,11.0,69,0.00,,---,0.01,VWS V14.01,2013-07-31 18:25:00,
2013-07-31 14:30:00,89.7,78.6,30.07,ENE,72,3.0,4.0,70,0.00,,---,0.01,VWS V14.01,2013-07-31 18:30:00,
2013-07-31 14:35:00,90.0,77.6,30.07,SE,135,2.0,4.0,67,0.00,,---,0.01,VWS V14.01,2013-07-31 18:35:00,
2013-07-31 14:40:00,89.7,77.3,30.07,ENE,65,5.0,9.0,67,0.00,,---,0.01,VWS V14.01,2013-07-31 18:40:00,
2013-07-31 14:45:00,89.5,77.6,30.07,East,79,5.0,10.0,68,0.00,,---,0.01,VWS V14.01,2013-07-31 18:45:00,
2013-07-31 14:50:00,89.7,76.4,30.07,ESE,113,4.0,10.0,65,0.00,,---,0.01,VWS V14.01,2013-07-31 18:50:00,
2013-07-31 14:55:00,89.8,76.5,30.06,ENE,72,2.0,10.0,65,0.00,,---,0.01,VWS V14.01,2013-07-31 18:55:00,
2013-07-31 15:00:00,90.1,76.8,30.06,East,80,1.0,5.0,65,0.00,,---,0.01,VWS V14.01,2013-07-31 19:00:00,
2013-07-31 15:05:00,89.9,76.1,30.06,SSE,159,1.0,9.0,64,0.00,,---,0.01,VWS V14.01,2013-07-31 19:05:00,
2013-07-31 15:10:00,90.4,76.6,30.06,ESE,108,3.0,9.0,64,0.00,,---,0.01,VWS V14.01,2013-07-31 19:10:00,
2013-07-31 15:16:00,90.0,77.6,30.05,SSE,165,1.0,11.0,67,0.00,,---,0.01,VWS V14.01,2013-07-31 19:16:00,
2013-07-31 15:21:00,89.8,76.5,30.06,SE,124,2.0,11.0,65,0.00,,---,0.01,VWS V14.01,2013-07-31 19:21:00,
2013-07-31 15:26:00,89.4,77.0,30.05,East,86,1.0,11.0,67,0.00,,---,0.01,VWS V14.01,2013-07-31 19:26:00,
2013-07-31 15:31:00,89.5,76.7,30.05,NNE,33,2.0,3.0,66,0.00,,---,0.01,VWS V14.01,2013-07-31 19:31:00,
2013-07-31 15:42:00,89.0,77.1,30.05,NE,43,5.0,5.0,68,0.00,,---,0.01,VWS V14.01,2013-07-31 19:42:00,
2013-07-31 15:47:00,88.8,76.9,30.05,WSW,248,1.0,11.0,68,0.00,,---,0.01,VWS V14.01,2013-07-31 19:47:00,
2013-07-31 15:52:00,88.8,76.9,30.04,SSE,158,2.0,11.0,68,0.00,,---,0.01,VWS V14.01,2013-07-31 19:52:00,
2013-07-31 15:57:00,89.0,76.6,30.04,SE,126,2.0,11.0,67,0.00,,---,0.01,VWS V14.01,2013-07-31 19:57:00,
2013-07-31 16:02:00,89.0,76.6,30.04,NE,53,2.0,3.0,67,0.00,,---,0.01,VWS V14.01,2013-07-31 20:02:00,
2013-07-31 16:07:00,89.1,75.8,30.04,SSE,159,0.0,10.0,65,0.00,,---,0.01,VWS V14.01,2013-07-31 20:07:00,
2013-07-31 16:12:00,89.5,76.7,30.04,South,191,2.0,10.0,66,0.00,,---,0.01,VWS V14.01,2013-07-31 20:12:00,
2013-07-31 16:17:00,90.1,77.2,30.04,NE,34,4.0,10.0,66,0.00,,---,0.01,VWS V14.01,2013-07-31 20:17:00,
2013-07-31 16:22:00,89.8,76.9,30.04,ESE,117,1.0,10.0,66,0.00,,---,0.01,VWS V14.01,2013-07-31 20:22:00,
2013-07-31 16:27:00,89.8,77.4,30.04,SE,136,2.0,10.0,67,0.00,,---,0.01,VWS V14.01,2013-07-31 20:27:00,
2013-07-31 16:32:00,89.8,77.4,30.04,SE,127,2.0,5.0,67,0.00,,---,0.01,VWS V14.01,2013-07-31 20:32:00,
2013-07-31 16:37:00,89.6,77.2,30.03,SW,228,4.0,6.0,67,0.00,,---,0.01,VWS V14.01,2013-07-31 20:37:00,
2013-07-31 16:42:00,89.7,77.7,30.03,NE,46,1.0,6.0,68,0.00,,---,0.01,VWS V14.01,2013-07-31 20:42:00,
2013-07-31 16:48:00,89.9,77.5,30.03,NNE,30,2.0,6.0,67,0.00,,---,0.01,VWS V14.01,2013-07-31 20:48:00,
2013-07-31 16:53:00,89.5,76.7,30.03,ESE,119,7.0,10.0,66,0.00,,---,0.01,VWS V14.01,2013-07-31 20:53:00,
2013-07-31 16:58:00,89.5,76.2,30.03,WNW,288,8.0,12.0,65,0.00,,---,0.01,VWS V14.01,2013-07-31 20:58:00,
2013-07-31 17:03:00,89.1,76.7,30.03,WSW,238,3.0,7.0,67,0.00,,---,0.01,VWS V14.01,2013-07-31 21:03:00,
2013-07-31 17:08:00,89.0,76.6,30.03,SSW,203,3.0,7.0,67,0.00,,---,0.01,VWS V14.01,2013-07-31 21:08:00,
2013-07-31 17:13:00,89.0,76.6,30.03,East,97,2.0,9.0,67,0.00,,---,0.01,VWS V14.01,2013-07-31 21:13:00,
2013-07-31 17:18:00,89.0,77.1,30.03,NE,34,2.0,9.0,68,0.00,,---,0.01,VWS V14.01,2013-07-31 21:18:00,
2013-07-31 17:23:00,89.2,77.7,30.03,East,91,1.0,9.0,69,0.00,,---,0.01,VWS V14.01,2013-07-31 21:23:00,
2013-07-31 17:28:00,89.3,77.4,30.03,SW,226,2.0,9.0,68,0.00,,---,0.01,VWS V14.01,2013-07-31 21:28:00,
2013-07-31 17:33:00,88.9,77.0,30.03,SSE,147,2.0,4.0,68,0.00,,---,0.01,VWS V14.01,2013-07-31 21:33:00,
2013-07-31 17:38:00,88.7,76.8,30.02,SE,126,1.0,4.0,68,0.00,,---,0.01,VWS V14.01,2013-07-31 21:38:00,
2013-07-31 17:43:00,88.8,77.3,30.02,NE,47,2.0,6.0,69,0.00,,---,0.01,VWS V14.01,2013-07-31 21:43:00,
2013-07-31 17:48:00,88.6,77.1,30.02,NE,39,0.0,8.0,69,0.00,,---,0.01,VWS V14.01,2013-07-31 21:48:00,
2013-07-31 17:54:00,88.8,76.4,30.02,SSE,156,0.0,8.0,67,0.00,,---,0.01,VWS V14.01,2013-07-31 21:54:00,
2013-07-31 17:59:00,88.7,73.5,30.02,SE,127,1.0,8.0,61,0.00,,---,0.01,VWS V14.01,2013-07-31 21:59:00,
2013-07-31 18:04:00,88.4,73.7,30.03,SE,131,1.0,5.0,62,0.00,,---,0.01,VWS V14.01,2013-07-31 22:04:00,
2013-07-31 18:14:00,88.6,73.9,30.02,SE,139,1.0,1.0,62,0.00,,---,0.01,VWS V14.01,2013-07-31 22:14:00,
2013-07-31 18:19:00,88.7,74.0,30.02,South,171,1.0,3.0,62,0.00,,---,0.01,VWS V14.01,2013-07-31 22:19:00,
2013-07-31 18:30:00,88.1,73.9,30.02,SE,135,1.0,7.0,63,0.00,,---,0.01,VWS V14.01,2013-07-31 22:30:00,
2013-07-31 19:07:00,88.1,73.9,30.02,SE,135,1.0,7.0,63,0.00,,---,0.01,VWS V14.01,2013-07-31 23:07:00,
2013-07-31 19:13:00,85.6,75.1,30.03,NE,34,1.0,1.0,71,0.00,,---,0.01,VWS V14.01,2013-07-31 23:13:00,
2013-07-31 19:18:00,85.3,75.2,30.03,ESE,103,0.0,2.0,72,0.00,,---,0.01,VWS V14.01,2013-07-31 23:18:00,
2013-07-31 19:23:00,85.0,75.0,30.03,ESE,122,0.0,2.0,72,0.00,,---,0.01,VWS V14.01,2013-07-31 23:23:00,
2013-07-31 19:28:00,84.8,75.2,30.03,ESE,123,0.0,2.0,73,0.00,,---,0.01,VWS V14.01,2013-07-31 23:28:00,
2013-07-31 19:33:00,84.6,75.0,30.03,ENE,75,1.0,1.0,73,0.00,,---,0.01,VWS V14.01,2013-07-31 23:33:00,
2013-07-31 19:38:00,84.3,75.1,30.03,ESE,116,0.0,2.0,74,0.00,,---,0.01,VWS V14.01,2013-07-31 23:38:00,
2013-07-31 19:43:00,84.1,74.9,30.04,ENE,59,0.0,3.0,74,0.00,,---,0.01,VWS V14.01,2013-07-31 23:43:00,
2013-07-31 19:48:00,83.9,75.1,30.04,East,87,0.0,3.0,75,0.00,,---,0.01,VWS V14.01,2013-07-31 23:48:00,
2013-07-31 19:53:00,83.7,75.3,30.04,ENE,70,0.0,3.0,76,0.00,,---,0.01,VWS V14.01,2013-07-31 23:53:00,
2013-07-31 19:58:00,83.5,75.5,30.04,ENE,61,0.0,3.0,77,0.00,,---,0.01,VWS V14.01,2013-07-31 23:58:00,
2013-07-31 20:04:00,83.4,75.4,30.04,East,101,0.0,1.0,77,0.00,,---,0.01,VWS V14.01,2013-08-01 00:04:00,
2013-07-31 20:09:00,83.2,75.6,30.04,NE,46,0.0,1.0,78,0.00,,---,0.01,VWS V14.01,2013-08-01 00:09:00,
2013-07-31 20:14:00,83.0,75.4,30.04,ENE,75,0.0,1.0,78,0.00,,---,0.01,VWS V14.01,2013-08-01 00:14:00,
2013-07-31 20:19:00,82.8,75.2,30.04,ESE,105,0.0,2.0,78,0.00,,---,0.01,VWS V14.01,2013-08-01 00:19:00,
2013-07-31 20:24:00,82.6,75.1,30.04,ESE,105,0.0,2.0,78,0.00,,---,0.01,VWS V14.01,2013-08-01 00:24:00,
2013-07-31 20:29:00,82.4,74.9,30.04,ESE,109,1.0,2.0,78,0.00,,---,0.01,VWS V14.01,2013-08-01 00:29:00,
2013-07-31 20:34:00,82.3,74.4,30.04,SE,134,0.0,2.0,77,0.00,,---,0.01,VWS V14.01,2013-08-01 00:34:00,
2013-07-31 20:39:00,82.2,74.3,30.04,SE,130,1.0,2.0,77,0.00,,---,0.01,VWS V14.01,2013-08-01 00:39:00,
2013-07-31 20:44:00,82.2,73.9,30.04,SSE,159,1.0,2.0,76,0.00,,---,0.01,VWS V14.01,2013-08-01 00:44:00,
2013-07-31 20:49:00,82.1,74.2,30.04,East,101,0.0,2.0,77,0.00,,---,0.01,VWS V14.01,2013-08-01 00:49:00,
2013-07-31 20:54:00,82.0,74.1,30.04,ENE,62,1.0,2.0,77,0.00,,---,0.01,VWS V14.01,2013-08-01 00:54:00,
2013-07-31 20:59:00,82.0,74.1,30.04,ESE,116,0.0,3.0,77,0.00,,---,0.01,VWS V14.01,2013-08-01 00:59:00,
2013-07-31 21:04:00,81.9,74.4,30.05,SSW,208,0.0,2.0,78,0.00,,---,0.01,VWS V14.01,2013-08-01 01:04:00,
2013-07-31 21:09:00,81.9,74.4,30.05,SE,130,1.0,2.0,78,0.00,,---,0.01,VWS V14.01,2013-08-01 01:09:00,
2013-07-31 21:14:00,81.7,74.6,30.05,SE,129,0.0,2.0,79,0.00,,---,0.01,VWS V14.01,2013-08-01 01:14:00,
2013-07-31 21:19:00,81.5,74.7,30.05,SE,129,0.0,2.0,80,0.00,,---,0.01,VWS V14.01,2013-08-01 01:19:00,
2013-07-31 21:24:00,81.3,74.9,30.05,NNW,330,0.0,2.0,81,0.00,,---,0.01,VWS V14.01,2013-08-01 01:24:00,
2013-07-31 21:29:00,81.2,74.8,30.05,NNW,330,0.0,2.0,81,0.00,,---,0.01,VWS V14.01,2013-08-01 01:29:00,
2013-07-31 21:34:00,81.2,74.8,30.06,NNW,329,0.0,0.0,81,0.00,,---,0.01,VWS V14.01,2013-08-01 01:34:00,
2013-07-31 21:39:00,80.9,74.9,30.06,NNW,330,0.0,0.0,82,0.00,,---,0.01,VWS V14.01,2013-08-01 01:39:00,
2013-07-31 21:44:00,80.8,75.2,30.06,NNW,330,0.0,0.0,83,0.00,,---,0.01,VWS V14.01,2013-08-01 01:44:00,
2013-07-31 21:49:00,80.6,75.0,30.06,NNW,330,0.0,0.0,83,0.00,,---,0.01,VWS V14.01,2013-08-01 01:49:00,
2013-07-31 21:55:00,80.5,75.2,30.07,NNW,328,0.0,1.0,84,0.00,,---,0.01,VWS V14.01,2013-08-01 01:55:00,
2013-07-31 22:00:00,80.4,75.1,30.07,NNW,328,0.0,1.0,84,0.00,,---,0.01,VWS V14.01,2013-08-01 02:00:00,
2013-07-31 22:05:00,80.2,74.9,30.07,NNW,328,0.0,0.0,84,0.00,,---,0.01,VWS V14.01,2013-08-01 02:05:00,
2013-07-31 22:10:00,79.9,75.0,30.07,NNW,328,0.0,0.0,85,0.00,,---,0.01,VWS V14.01,2013-08-01 02:10:00,
2013-07-31 22:15:00,79.7,74.8,30.08,NNW,328,0.0,0.0,85,0.00,,---,0.01,VWS V14.01,2013-08-01 02:15:00,
2013-07-31 22:20:00,79.5,74.9,30.08,NNW,328,0.0,1.0,86,0.00,,---,0.01,VWS V14.01,2013-08-01 02:20:00,
2013-07-31 22:21:00,79.5,74.9,30.08,NNW,327,0.0,1.0,86,0.00,,---,0.01,VWS V14.01,2013-08-01 02:21:00,
2013-07-31 22:26:00,79.2,74.7,30.08,NNW,328,0.0,1.0,86,0.00,,---,0.01,VWS V14.01,2013-08-01 02:26:00,
2013-07-31 22:31:00,78.9,74.4,30.08,NNW,328,0.0,0.0,86,0.00,,---,0.01,VWS V14.01,2013-08-01 02:31:00,
2013-07-31 22:36:00,78.6,74.4,30.08,NNW,327,0.0,0.0,87,0.00,,---,0.01,VWS V14.01,2013-08-01 02:36:00,
2013-07-31 22:41:00,78.4,74.2,30.08,NNW,328,0.0,0.0,87,0.00,,---,0.01,VWS V14.01,2013-08-01 02:41:00,
2013-07-31 22:46:00,78.2,74.4,30.08,NNW,327,0.0,0.0,88,0.00,,---,0.01,VWS V14.01,2013-08-01 02:46:00,
2013-07-31 22:51:00,78.1,74.6,30.08,NNW,327,0.0,0.0,89,0.00,,---,0.01,VWS V14.01,2013-08-01 02:51:00,
2013-07-31 22:56:00,78.1,74.6,30.08,NNW,327,0.0,0.0,89,0.00,,---,0.01,VWS V14.01,2013-08-01 02:56:00,
2013-07-31 23:02:00,77.9,74.4,30.08,NNW,328,0.0,0.0,89,0.00,,---,0.01,VWS V14.01,2013-08-01 03:02:00,
2013-07-31 23:07:00,77.7,74.5,30.08,NNW,327,0.0,0.0,90,0.00,,---,0.01,VWS V14.01,2013-08-01 03:07:00,
2013-07-31 23:12:00,77.6,74.4,30.07,NNW,328,0.0,0.0,90,0.00,,---,0.01,VWS V14.01,2013-08-01 03:12:00,
2013-07-31 23:17:00,77.5,74.7,30.07,NW,326,0.0,0.0,91,0.00,,---,0.01,VWS V14.01,2013-08-01 03:17:00,
2013-07-31 23:22:00,77.6,74.8,30.07,NW,325,0.0,0.0,91,0.00,,---,0.01,VWS V14.01,2013-08-01 03:22:00,
2013-07-31 23:27:00,77.6,74.8,30.07,NW,325,0.0,0.0,91,0.00,,---,0.01,VWS V14.01,2013-08-01 03:27:00,
2013-07-31 23:32:00,77.7,74.9,30.07,NW,325,0.0,0.0,91,0.00,,---,0.01,VWS V14.01,2013-08-01 03:32:00,
2013-07-31 23:37:00,77.5,74.7,30.07,NW,325,0.0,0.0,91,0.00,,---,0.01,VWS V14.01,2013-08-01 03:37:00,
2013-07-31 23:42:00,77.4,74.6,30.07,NW,325,0.0,0.0,91,0.00,,---,0.01,VWS V14.01,2013-08-01 03:42:00,
2013-07-31 23:47:00,77.4,74.9,30.08,NW,325,0.0,0.0,92,0.00,,---,0.01,VWS V14.01,2013-08-01 03:47:00,
2013-07-31 23:52:00,77.4,74.9,30.08,NW,325,0.0,0.0,92,0.00,,---,0.01,VWS V14.01,2013-08-01 03:52:00,
2013-07-31 23:57:00,77.2,74.7,30.08,NW,325,0.0,0.0,92,0.00,,---,0.01,VWS V14.01,2013-08-01 03:57:00,